Impacts METAR Board
IDs:

KDTW - Detroit Metro/Wayne, MI, US

Updated at: 1000 UTC 30 Oct 2020
Potential Impact None Slight Moderate High
Time 29/22Z 29/23Z 30/00Z 30/01Z 30/02Z 30/03Z 30/04Z 30/05Z 30/06Z 30/07Z 30/08Z 30/09Z 30/10Z
Temp47 46 46 45 43 42 42 41 40 39 39 38 38
Dewpt40 40 39 37 35 33 32 31 31 31 31 31 31
Altim29.80 29.82 29.85 29.87 29.88 29.90 29.92 29.94 29.96 29.98 30.00 30.00 30.03
VIS10 10 10 10 10 10 10 10 10 10 10 10 10
CIG14 25 19 30 20 24 40 45 45 60 65 65 65
CoverOVCOVCOVCOVCOVCOVCOVCOVCOVCOVCOVCOVCOVC
FltCatMVFRMVFRMVFRMVFRMVFRMVFRVFRVFRVFRVFRVFRVFRVFR
WX--------------------------
WDir1036010101010360360350340340350340
WSpd12 11 12 14 18 13 12 10 14 10 13 10 8
WGst-- -- 20 25 23 20 -- -- -- -- 18 -- --
Raw hourly METARs
KDTW 292205Z 01012KT 10SM BKN014 OVC026 08/04 A2980 RMK AO2 T00830044
KDTW 292253Z 36011KT 10SM SCT017 OVC025 08/04 A2982 RMK AO2 SLP101 T00780044
KDTW 292353Z 01012G20KT 10SM BKN019 OVC025 08/04 A2985 RMK AO2 SLP111 60000 T00780039 10122 20078 53022
KDTW 300053Z 01014G25KT 10SM SCT022 OVC030 07/03 A2987 RMK AO2 PK WND 02027/0030 SLP116 T00720028
KDTW 300153Z 01018G23KT 10SM BKN020 OVC035 06/02 A2988 RMK AO2 PK WND 02026/0137 SLP122 T00610017
KDTW 300253Z 01013G20KT 10SM OVC024 06/01 A2990 RMK AO2 SLP129 T00560006 53018
KDTW 300353Z 36012KT 10SM SCT025 OVC040 06/00 A2992 RMK AO2 SLP134 T00560000
KDTW 300453Z 36010KT 10SM SCT025 OVC045 05/M01 A2994 RMK AO2 SLP141 T00501006 401220050
KDTW 300553Z 35014KT 10SM SCT025 BKN045 OVC120 04/M01 A2996 RMK AO2 SLP148 T00441006 10078 20044 53018
KDTW 300653Z 34010KT 10SM BKN060 OVC110 04/M01 A2998 RMK AO2 SLP156 T00391006
KDTW 300753Z 34013G18KT 10SM BKN065 OVC110 04/M01 A3000 RMK AO2 SLP162 T00391006
KDTW 300853Z 35010KT 10SM SCT016 OVC065 03/M01 A3000 RMK AO2 SLP164 T00331006 51015
KDTW 300953Z 34008KT 10SM FEW016 OVC065 03/M01 A3003 RMK AO2 SLP172 T00331006



Page loaded:  10:45 UTC  |   03:45 AM Pacific  |   04:45 AM Mountain  |   05:45 AM Central  |   06:45 AM Eastern

 

ADVISORIES

FORECASTS

FORECASTS

OBSERVATIONS

USER TOOLS

ABOUT US